Chan Gurney Municipal Airport
KYKN : now visible

Airfield :











YOU CAN JOIN US ON...

 
LOGIN :

Register | Disclaimer

   EN    FR    IT 

 









Legend :    VFR   Marginal VFR   IFR   Intensive IFR   Very Intensive IFR
Visi :
Ceiling :
>= 8 km
>= 3000ft
5 to 8 km
1000 to 3000 ft
1500m to 5 km
500 to 1000 ft
800 to 1500m
200 to 500 ft
< 800m
< 200 ft
Symbols :   Thunderstorms  Fog  Heavy snow  Heavy precipitations  Wind > 20 kt






- Airport Elevation : 1306 ft


KYKN - Chan Gurney Municipal

CURRENT METAR :
  • 282256Z AUTO 32010KT 10SM CLR 23/06 A3015 RMK AO2 SLP218 T02280061

EXPIRED METARs :
  • 282156Z AUTO 31010KT 10SM FEW080 23/06 A3015 RMK AO2 SLP219 T02280056
  • 282056Z AUTO 34008KT 310V010 10SM FEW080 23/07 A3015 RMK AO2 SLP217 T02280072 58003
  • 281956Z AUTO 32009KT 10SM SCT070 22/08 A3015 RMK AO2 SLP219 T02220083
  • 281856Z AUTO 31010G19KT 10SM CLR 22/09 A3015 RMK AO2 SLP220 T02170089

TAF N/A
KZMP FIR / North America



MET'MAP, your aeronautical weather chart ! - Copyright ORBIFLY December 2007 - Disclaimer

ORBIFLY MET'MAP TEAM :

Programming & Development : Alexandra Zaïnal
Original concept : Baudouin d'Aumeries
Technical & hardware support : Manuel Goepfert
Assistance : Marc-Olivier Méhu




SOURCES & CREDITS :

   NOAA       Earth
Advisory